WetterOnline ( https://www.wetteronline.de )

Wetter aktuell Postfeld

Aktuelles Wetter: Kiel/Holtenau (27m)

6-stündlich | Neueste Meldungen
Ortszeit Temperatur Wetter
Mi, 12.05. 2:00 10.6° C leichter Regen
Di, 11.05. 20:00 11.2° C bedeckt
Di, 11.05. 14:00 11.8° C leichter Regen
Di, 11.05. 8:00 10.8° C leichter Regen
Di, 11.05. 2:00 11.3° C leichter Regen
Mo, 10.05. 20:00 16.0° C bedeckt
Mo, 10.05. 14:00 24.2° C bedeckt
Mo, 10.05. 8:00 17.7° C bewölkt
Ortszeit Temperatur Wetter
Mi, 12.05. 2:00 10.6° C leichter Regen
Mi, 12.05. 1:50 10.6° C leichter Regen
Mi, 12.05. 1:40 10.6° C Sprühregen
Mi, 12.05. 1:30 10.7° C leichter Regen
Mi, 12.05. 1:20 10.7° C leichter Regen
Mi, 12.05. 1:10 10.7° C Sprühregen
Mi, 12.05. 1:00 10.8° C leichter Regen
Mi, 12.05. 0:30 10.7° C bewölkt
Mi, 12.05. 0:00 10.8° C Sprühregen
Di, 11.05. 23:30 10.8° C bedeckt
Di, 11.05. 23:00 11.0° C bedeckt
Ortszeit Relative Feuchte Sichtweite
Mi, 12.05. 2:00 94% 30 km
Di, 11.05. 20:00 86% 55 km
Di, 11.05. 14:00 84% 35 km
Di, 11.05. 8:00 89% 40 km
Di, 11.05. 2:00 92% 17 km
Mo, 10.05. 20:00 70% >70 km
Mo, 10.05. 14:00 44% 60 km
Mo, 10.05. 8:00 59% >70 km
Ortszeit Relative Feuchte Sichtweite
Mi, 12.05. 2:00 94% 30 km
Mi, 12.05. 1:50 94% -
Mi, 12.05. 1:40 94% -
Mi, 12.05. 1:30 94% 26 km
Mi, 12.05. 1:20 94% -
Mi, 12.05. 1:10 93% -
Mi, 12.05. 1:00 91% 35 km
Mi, 12.05. 0:30 91% 50 km
Mi, 12.05. 0:00 90% 60 km
Di, 11.05. 23:30 90% 50 km
Di, 11.05. 23:00 89% 65 km
Ortszeit Niederschlagsmenge Niederschlagsart
Mi, 12.05. 2:00 0.1 l/m2 in 6 Std. Regen
Di, 11.05. 20:00 2 l/m2 in 12 Std. Regen
Di, 11.05. 14:00 2 l/m2 in 6 Std. Regen
Di, 11.05. 8:00 8 l/m2 in 12 Std. Regen
Di, 11.05. 2:00 1 l/m2 in 6 Std. Regen
Mo, 10.05. 20:00 0.1 l/m2 in 12 Std. Regen
Mo, 10.05. 14:00 0.0 l/m2 in 6 Std. -
Mo, 10.05. 8:00 0.0 l/m2 in 12 Std. -
Ortszeit Niederschlagsmenge Niederschlagsart
Mi, 12.05. 2:00 0.1 l/m2 in 1 Std. Regen
Mi, 12.05. 1:50 keine Meldung -
Mi, 12.05. 1:40 keine Meldung -
Mi, 12.05. 1:30 0.1 l/m2 in 1 Std. -
Mi, 12.05. 1:20 keine Meldung -
Mi, 12.05. 1:10 keine Meldung -
Mi, 12.05. 1:00 0.1 l/m2 in 1 Std. Regen
Mi, 12.05. 0:30 0.1 l/m2 in 1 Std. Schnee
Mi, 12.05. 0:00 0.1 l/m2 in 1 Std. Regen
Di, 11.05. 23:30 0.1 l/m2 in 1 Std. Schneeregen
Di, 11.05. 23:00 0.1 l/m2 in 1 Std. Regen
Ortszeit Stärke Spitze Richtung
km/h Bft. km/h Grad Sektor
Mi, 12.05. 2:00 11 2 31 310° NW
Di, 11.05. 20:00 18 3 40 350° N
Di, 11.05. 14:00 19 3 31 30° NO
Di, 11.05. 8:00 11 2 22 80° O
Di, 11.05. 2:00 11 2 18 90° O
Mo, 10.05. 20:00 13 3 46 300° NW
Mo, 10.05. 14:00 18 3 36 210° SW
Mo, 10.05. 8:00 9 2 28 170° S
Ortszeit Stärke Spitze Richtung
km/h Bft. km/h Grad Sektor
Mi, 12.05. 2:00 11 2 20 310° NW
Mi, 12.05. 1:50 11 2 - 310° NW
Mi, 12.05. 1:40 13 3 - 300° NW
Mi, 12.05. 1:30 11 2 22 300° NW
Mi, 12.05. 1:20 11 2 - 300° NW
Mi, 12.05. 1:10 13 3 - 320° NW
Mi, 12.05. 1:00 13 3 20 330° NW
Mi, 12.05. 0:30 11 2 22 350° N
Mi, 12.05. 0:00 13 3 26 340° N
Di, 11.05. 23:30 17 3 26 10° N
Di, 11.05. 23:00 15 3 31 360° N
Ortszeit Untergrenze Bedeckung Gattung
total tief tief mittel hoch
Mi, 12.05. 2:00 - 8/8 - - - -
Di, 11.05. 20:00 3000 m 8/8 8/8 - - -
Di, 11.05. 14:00 1800 m 8/8 1/8 - - -
Di, 11.05. 8:00 1440 m 8/8 8/8 - - -
Di, 11.05. 2:00 1800 m 7/8 7/8 - - -
Mo, 10.05. 20:00 4500 m 8/8 8/8 - - -
Mo, 10.05. 14:00 3300 m 8/8 8/8 - - -
Mo, 10.05. 8:00 3600 m 8/8 7/8 - - -
Ortszeit Bedeckungsgrad in Achtel und Wolkenuntergrenze
Mi, 12.05. 2:00 8
Mi, 12.05. 1:50 9 9 9
Mi, 12.05. 1:40 9 9 9
Mi, 12.05. 1:30 9 9 9
Mi, 12.05. 1:20 9 9 9
Mi, 12.05. 1:10 9 9 9
Mi, 12.05. 1:00 7(270m) 7(390m) 9
Mi, 12.05. 0:30 6(270m) 7(390m) 7(3300m)
Mi, 12.05. 0:00 6(300m) 7(2700m) 7(3300m)
Di, 11.05. 23:30 3(1800m) 8(2700m) 8(5700m)
Di, 11.05. 23:00 6(3000m) 8(3600m) 8(4500m)
Ortszeit Luftdruck NN (hPa) Tendenz (hPa in 3 Std.)
Mi, 12.05. 2:00 1006 - 1,3
Di, 11.05. 20:00 1008 0,0
Di, 11.05. 14:00 1009 - 1,0
Di, 11.05. 8:00 1011 0,0
Di, 11.05. 2:00 1011 + 0,3
Mo, 10.05. 20:00 1010 + 2,2
Mo, 10.05. 14:00 1003 + 0,8
Mo, 10.05. 8:00 1002 + 1,4
Ortszeit Luftdruck NN (hPa) Tendenz (hPa in 3 Std.)
Mi, 12.05. 2:00 1006 - 1,3
Mi, 12.05. 1:50 1006 keine Meldung
Mi, 12.05. 1:40 1006 keine Meldung
Mi, 12.05. 1:30 1007 - 1,1
Mi, 12.05. 1:20 1007 keine Meldung
Mi, 12.05. 1:10 1007 keine Meldung
Mi, 12.05. 1:00 1007 - 1,4
Mi, 12.05. 0:30 1007 - 0,8
Mi, 12.05. 0:00 1007 - 0,6
Di, 11.05. 23:30 1007 - 0,7
Di, 11.05. 23:00 1008 - 0,6
Ortszeit Schneehöhe (cm)
Mi, 12.05. 2:00 0
Di, 11.05. 20:00 0
Di, 11.05. 14:00 0
Di, 11.05. 8:00 0
Di, 11.05. 2:00 0
Mo, 10.05. 20:00 0
Mo, 10.05. 14:00 0
Mo, 10.05. 8:00 0
Ortszeit Schneehöhe (cm)
Mi, 12.05. 2:00 0
Mi, 12.05. 1:50 0
Mi, 12.05. 1:40 0
Mi, 12.05. 1:30 0
Mi, 12.05. 1:20 0
Mi, 12.05. 1:10 0
Mi, 12.05. 1:00 0
Mi, 12.05. 0:30 0
Mi, 12.05. 0:00 0
Di, 11.05. 23:30 0
Di, 11.05. 23:00 0
Link zu dieser Seite / Seite empfehlen

Das Wetter in ...